createdAt,value
2022-08-05T00:00:15.969Z,133.63
2022-08-05T00:02:51.302Z,142.77
2022-08-05T00:06:02.866Z,137.15
2022-08-05T00:08:32.541Z,117.38
2022-08-05T00:10:56.516Z,128.60
2022-08-05T00:13:39.538Z,126.18
2022-08-05T00:16:12.607Z,130.50
2022-08-05T00:18:42.209Z,124.90
2022-08-05T00:21:09.936Z,137.05
2022-08-05T00:23:46.408Z,133.63
2022-08-05T00:26:21.051Z,121.75
2022-08-05T00:28:49.539Z,127.07
2022-08-05T00:31:16.729Z,121.90
2022-08-05T00:34:56.661Z,134.48
2022-08-05T00:37:12.534Z,139.40
2022-08-05T00:39:43.921Z,128.43
2022-08-05T00:42:11.595Z,166.48
2022-08-05T00:44:58.381Z,145.60
2022-08-05T00:47:26.135Z,139.13
2022-08-05T00:50:13.038Z,150.77
2022-08-05T00:52:40.301Z,149.18
2022-08-05T00:55:07.693Z,152.00
2022-08-05T00:57:38.281Z,145.48
2022-08-05T01:00:22.028Z,139.60
2022-08-05T01:02:53.057Z,142.60
2022-08-05T01:05:20.231Z,135.77
2022-08-05T01:08:30.393Z,155.55
2022-08-05T01:10:52.350Z,139.55
2022-08-05T01:13:57.410Z,150.55
2022-08-05T01:16:49.259Z,145.27
2022-08-05T01:19:30.195Z,166.88
2022-08-05T01:22:24.106Z,149.35
2022-08-05T01:25:39.614Z,163.88
2022-08-05T01:28:16.516Z,175.77
2022-08-05T01:31:07.484Z,164.13
2022-08-05T01:33:39.454Z,148.73
2022-08-05T01:36:15.890Z,152.43
2022-08-05T01:38:46.147Z,150.98
2022-08-05T01:41:21.662Z,147.82
2022-08-05T01:43:50.956Z,150.60
2022-08-05T01:46:42.559Z,170.07
2022-08-05T01:49:24.285Z,159.65
2022-08-05T01:51:58.241Z,155.18
2022-08-05T01:54:31.542Z,174.82
2022-08-05T01:58:11.725Z,163.88
2022-08-05T01:59:50.894Z,145.77
2022-08-05T02:02:20.314Z,167.35
2022-08-05T02:04:59.091Z,166.38
2022-08-05T02:07:26.406Z,172.13
2022-08-05T02:09:57.757Z,167.55
2022-08-05T02:12:38.873Z,171.23
2022-08-05T02:15:20.454Z,179.40
2022-08-05T02:18:28.194Z,180.55
2022-08-05T02:21:03.535Z,174.63
2022-08-05T02:23:37.040Z,158.35
2022-08-05T02:26:09.250Z,181.30
2022-08-05T02:28:45.789Z,197.73
2022-08-05T02:31:21.136Z,170.07
2022-08-05T02:33:57.853Z,175.70
2022-08-05T02:36:27.895Z,177.30
2022-08-05T02:41:43.268Z,190.55
2022-08-05T02:44:16.646Z,197.27
2022-08-05T02:46:58.375Z,177.13
2022-08-05T02:49:36.130Z,183.77
2022-08-05T02:52:08.586Z,182.48
2022-08-05T02:54:37.664Z,185.80
2022-08-05T02:58:11.120Z,171.30
2022-08-05T03:00:01.594Z,163.75
2022-08-05T03:02:40.471Z,166.20
2022-08-05T03:05:11.154Z,170.85
2022-08-05T03:08:01.753Z,164.90
2022-08-05T03:10:27.951Z,155.85
2022-08-05T03:12:55.006Z,151.40
2022-08-05T03:15:23.711Z,177.63
2022-08-05T03:17:54.125Z,169.65
2022-08-05T03:20:24.374Z,173.18
2022-08-05T03:22:52.267Z,157.30
2022-08-05T03:25:32.656Z,164.55
2022-08-05T03:28:03.098Z,171.23
2022-08-05T03:30:33.923Z,176.95
2022-08-05T03:33:02.969Z,157.20
2022-08-05T03:35:33.720Z,167.38
2022-08-05T03:38:02.663Z,161.88
2022-08-05T03:40:32.443Z,164.88
2022-08-05T03:43:01.339Z,155.82
2022-08-05T03:45:57.164Z,155.68
2022-08-05T03:48:27.587Z,155.05
2022-08-05T03:52:48.930Z,156.18
2022-08-05T03:55:34.207Z,142.77
2022-08-05T03:57:34.270Z,121.68
2022-08-05T03:59:56.468Z,141.50
2022-08-05T04:02:38.374Z,125.30
2022-08-05T04:05:09.656Z,140.80
2022-08-05T04:07:51.475Z,165.18
2022-08-05T04:10:30.895Z,130.95
2022-08-05T04:13:00.059Z,165.05
2022-08-05T04:15:32.810Z,138.23
2022-08-05T04:18:07.381Z,167.85
2022-08-05T04:20:36.670Z,174.00
2022-08-05T04:23:03.646Z,136.75
2022-08-05T04:25:57.620Z,157.40
2022-08-05T04:28:19.038Z,198.45
2022-08-05T04:30:47.159Z,206.43
2022-08-05T04:33:15.820Z,205.93
2022-08-05T04:36:11.373Z,239.63
2022-08-05T04:38:39.125Z,204.55
2022-08-05T04:41:09.512Z,208.20
2022-08-05T04:43:38.050Z,181.13
2022-08-05T04:46:13.623Z,204.88
2022-08-05T04:48:54.964Z,208.15
2022-08-05T04:51:21.657Z,207.55
2022-08-05T04:53:50.127Z,185.85
2022-08-05T04:56:34.864Z,197.63
2022-08-05T04:59:21.924Z,171.55
2022-08-05T05:02:07.853Z,170.38
2022-08-05T05:04:47.717Z,201.18
2022-08-05T05:07:17.634Z,221.90
2022-08-05T05:09:45.356Z,172.25
2022-08-05T05:12:12.166Z,160.05
2022-08-05T05:14:49.559Z,176.68
2022-08-05T05:17:23.412Z,164.27
2022-08-05T05:19:53.501Z,170.02
2022-08-05T05:22:24.319Z,137.45
2022-08-05T05:24:59.920Z,151.43
2022-08-05T05:27:44.231Z,125.97
2022-08-05T05:30:29.063Z,129.55
2022-08-05T05:33:00.230Z,130.90
2022-08-05T05:35:31.581Z,130.38
2022-08-05T05:38:09.150Z,121.85
2022-08-05T05:40:42.510Z,119.10
2022-08-05T05:43:16.287Z,107.38
2022-08-05T05:45:49.554Z,129.68
2022-08-05T05:48:16.349Z,117.43
2022-08-05T05:50:44.502Z,116.95
2022-08-05T05:53:21.617Z,130.25
2022-08-05T05:55:51.373Z,150.10
2022-08-05T05:58:31.428Z,143.07
2022-08-05T06:01:04.918Z,144.50
2022-08-05T06:04:00.935Z,148.95
2022-08-05T06:06:30.813Z,162.40
2022-08-05T06:08:58.496Z,152.45
2022-08-05T06:11:26.122Z,147.93
2022-08-05T06:13:55.780Z,188.68
2022-08-05T06:16:30.597Z,199.02
2022-08-05T06:19:01.174Z,105.70
2022-08-05T06:21:35.900Z,139.02
2022-08-05T06:24:12.419Z,134.18
2022-08-05T06:26:51.883Z,128.00
2022-08-05T06:29:48.145Z,106.45
2022-08-05T06:32:21.095Z,114.57
2022-08-05T06:34:53.582Z,126.57
2022-08-05T06:40:09.614Z,113.47
2022-08-05T06:42:37.076Z,128.40
2022-08-05T06:45:08.811Z,137.63
2022-08-05T06:48:47.408Z,150.77
2022-08-05T06:50:24.981Z,133.02
2022-08-05T06:53:04.008Z,143.95
2022-08-05T06:55:42.027Z,116.22
2022-08-05T06:58:20.577Z,135.55
2022-08-05T07:01:04.159Z,116.07
2022-08-05T07:03:32.866Z,135.55
2022-08-05T07:06:06.033Z,160.52
2022-08-05T07:08:47.291Z,129.30
2022-08-05T07:14:02.338Z,160.38
2022-08-05T07:18:00.824Z,171.98
2022-08-05T07:22:28.373Z,133.52
2022-08-05T07:24:58.351Z,145.48
2022-08-05T07:27:27.601Z,142.18
2022-08-05T07:30:27.873Z,135.55
2022-08-05T07:32:58.093Z,108.15
2022-08-05T07:36:02.192Z,116.07
2022-08-05T07:38:26.488Z,87.35
2022-08-05T07:41:02.812Z,84.95
2022-08-05T07:43:44.125Z,83.28
2022-08-05T07:46:20.752Z,78.72
2022-08-05T07:49:01.797Z,65.40
2022-08-05T07:51:41.065Z,61.00
2022-08-05T07:54:23.209Z,61.33
2022-08-05T07:57:01.950Z,56.72
2022-08-05T07:59:41.370Z,53.38
2022-08-05T08:02:16.971Z,56.30
2022-08-05T08:04:49.609Z,51.75
2022-08-05T08:07:22.467Z,51.40
2022-08-05T08:09:53.130Z,37.95
2022-08-05T08:12:33.476Z,47.30
2022-08-05T08:15:13.981Z,36.78
2022-08-05T08:17:46.310Z,34.35
2022-08-05T08:20:44.087Z,30.63
2022-08-05T08:23:03.880Z,37.97
2022-08-05T08:25:59.168Z,44.28
2022-08-05T08:28:35.532Z,26.50
2022-08-05T08:31:07.201Z,39.20
2022-08-05T08:33:37.429Z,38.35
2022-08-05T08:36:38.176Z,36.88
2022-08-05T08:38:55.581Z,42.92
2022-08-05T08:41:26.109Z,54.58
2022-08-05T08:45:16.345Z,65.85
2022-08-05T08:47:02.541Z,73.47
2022-08-05T08:50:14.573Z,86.65
2022-08-05T08:52:33.921Z,79.38
2022-08-05T08:55:01.373Z,84.05
2022-08-05T08:57:42.003Z,80.95
2022-08-05T09:00:15.758Z,85.75
2022-08-05T09:02:47.767Z,73.60
2022-08-05T09:05:17.870Z,69.55
2022-08-05T09:07:57.423Z,69.40
2022-08-05T09:10:27.681Z,70.18
2022-08-05T09:12:59.860Z,54.08
2022-08-05T09:15:32.369Z,46.42
2022-08-05T09:18:07.251Z,28.88
2022-08-05T09:20:41.809Z,21.67
2022-08-05T09:23:19.695Z,20.92
2022-08-05T09:26:02.754Z,13.43
2022-08-05T09:28:33.513Z,12.00
2022-08-05T09:31:18.123Z,7.93
2022-08-05T09:33:55.053Z,6.80
2022-08-05T09:36:27.814Z,6.10
2022-08-05T09:39:02.376Z,7.05
2022-08-05T09:41:33.235Z,6.90
2022-08-05T09:44:06.166Z,11.32
2022-08-05T09:46:35.073Z,4.65
2022-08-05T09:49:19.576Z,6.20
2022-08-05T09:51:50.051Z,4.10
2022-08-05T09:54:28.904Z,5.13
2022-08-05T09:57:01.239Z,3.17
2022-08-05T09:59:29.043Z,4.93
2022-08-05T10:02:02.150Z,3.95
2022-08-05T10:04:36.051Z,4.85
2022-08-05T10:07:20.937Z,4.80
2022-08-05T10:10:13.910Z,3.75
2022-08-05T10:12:49.685Z,2.75
2022-08-05T10:15:46.499Z,2.58
2022-08-05T10:18:22.879Z,1.70
2022-08-05T10:21:06.345Z,2.22
2022-08-05T10:23:56.113Z,2.30
2022-08-05T10:26:32.336Z,2.95
2022-08-05T10:29:00.448Z,4.18
2022-08-05T10:32:54.505Z,8.15
2022-08-05T10:34:14.456Z,7.13
2022-08-05T10:36:44.184Z,6.47
2022-08-05T10:39:25.098Z,7.63
2022-08-05T10:42:34.363Z,6.55
2022-08-05T10:45:21.327Z,5.80
2022-08-05T10:48:27.644Z,6.20
2022-08-05T10:51:00.846Z,4.95
2022-08-05T10:56:21.590Z,3.78
2022-08-05T10:58:58.732Z,1.85
2022-08-05T11:01:54.899Z,3.72
2022-08-05T11:04:30.756Z,2.85
2022-08-05T11:07:01.407Z,3.88
2022-08-05T11:09:46.947Z,3.95
2022-08-05T11:12:37.380Z,2.83
2022-08-05T11:15:19.427Z,2.85
2022-08-05T11:17:57.904Z,3.10
2022-08-05T11:20:38.992Z,3.03
2022-08-05T11:23:48.830Z,2.28
2022-08-05T11:26:28.343Z,2.22
2022-08-05T11:29:06.701Z,1.75
2022-08-05T11:31:58.616Z,2.15
2022-08-05T11:34:40.032Z,1.77
2022-08-05T11:38:37.004Z,2.03
2022-08-05T11:41:03.565Z,1.98
2022-08-05T11:44:06.730Z,1.23
2022-08-05T11:46:37.587Z,2.28
2022-08-05T11:49:08.048Z,2.65
2022-08-05T11:51:44.425Z,1.90
2022-08-05T11:54:33.341Z,3.22
2022-08-05T11:57:07.565Z,2.78
2022-08-05T11:59:49.333Z,2.03
2022-08-05T12:02:24.129Z,4.15
2022-08-05T12:04:59.979Z,3.50
2022-08-05T12:08:08.726Z,2.38
2022-08-05T12:10:20.836Z,3.25
2022-08-05T12:12:59.366Z,3.65
2022-08-05T12:15:38.353Z,2.63
2022-08-05T12:18:12.000Z,1.65
2022-08-05T12:20:39.402Z,1.40
2022-08-05T12:23:10.836Z,2.53
2022-08-05T12:25:56.785Z,2.08
2022-08-05T12:28:38.215Z,2.38
2022-08-05T12:31:05.805Z,3.10
2022-08-05T12:33:36.606Z,1.30
2022-08-05T12:36:09.710Z,1.92
2022-08-05T12:38:39.874Z,3.78
2022-08-05T12:41:16.137Z,2.53
2022-08-05T12:43:55.063Z,3.15
2022-08-05T12:46:29.205Z,2.40
2022-08-05T12:49:14.622Z,2.03
2022-08-05T12:52:12.755Z,5.47
2022-08-05T12:54:41.817Z,4.65
2022-08-05T12:57:10.848Z,4.75
2022-08-05T12:59:46.971Z,4.90
2022-08-05T13:02:36.044Z,4.20
2022-08-05T13:05:06.623Z,11.30
2022-08-05T13:07:59.287Z,4.43
2022-08-05T13:10:20.593Z,5.35
2022-08-05T13:12:57.392Z,8.32
2022-08-05T13:15:41.782Z,3.75
2022-08-05T13:18:20.104Z,6.65
2022-08-05T13:20:49.921Z,6.22
2022-08-05T13:23:22.763Z,5.13
2022-08-05T13:25:59.610Z,7.72
2022-08-05T13:28:28.940Z,3.13
2022-08-05T13:30:55.812Z,4.25
2022-08-05T13:34:20.954Z,2.83
2022-08-05T13:36:16.831Z,2.25
2022-08-05T13:38:43.625Z,4.47
2022-08-05T13:41:11.801Z,2.40
2022-08-05T13:43:43.990Z,2.60
2022-08-05T13:46:13.226Z,2.97
2022-08-05T13:48:57.409Z,3.50
2022-08-05T13:51:36.577Z,2.50
2022-08-05T13:54:12.397Z,2.38
2022-08-05T13:56:45.153Z,3.35
2022-08-05T13:59:24.318Z,1.92
2022-08-05T14:01:58.979Z,2.53
2022-08-05T14:04:51.987Z,2.38
2022-08-05T14:07:26.218Z,3.55
2022-08-05T14:10:18.810Z,4.35
2022-08-05T14:12:48.648Z,7.15
2022-08-05T14:16:05.724Z,3.53
2022-08-05T14:18:04.046Z,4.15
2022-08-05T14:20:31.693Z,6.30
2022-08-05T14:22:59.881Z,5.40
2022-08-05T14:25:27.936Z,5.00
2022-08-05T14:27:55.911Z,9.88
2022-08-05T14:30:26.410Z,10.73
2022-08-05T14:32:54.221Z,6.18
2022-08-05T14:35:23.727Z,11.75
2022-08-05T14:38:04.512Z,14.65
2022-08-05T14:40:31.455Z,17.77
2022-08-05T14:42:58.327Z,13.98
2022-08-05T14:45:25.983Z,26.75
2022-08-05T14:48:05.016Z,21.77
2022-08-05T14:50:33.390Z,36.90
2022-08-05T14:53:06.835Z,31.95
2022-08-05T14:55:39.548Z,28.20
2022-08-05T14:58:11.565Z,35.97
2022-08-05T15:00:57.899Z,56.72
2022-08-05T15:03:26.262Z,63.38
2022-08-05T15:06:07.858Z,56.60
2022-08-05T15:09:01.520Z,73.60
2022-08-05T15:11:52.509Z,79.22
2022-08-05T15:14:33.651Z,88.75
2022-08-05T15:17:01.651Z,80.47
2022-08-05T15:19:31.219Z,67.80
2022-08-05T15:22:01.072Z,107.63
2022-08-05T15:24:28.624Z,97.05
2022-08-05T15:26:56.024Z,88.10
2022-08-05T15:29:29.746Z,87.07
2022-08-05T15:32:02.236Z,106.75
2022-08-05T15:34:32.020Z,95.65
2022-08-05T15:37:06.181Z,134.75
2022-08-05T15:40:58.968Z,142.88
2022-08-05T15:42:54.208Z,143.77
2022-08-05T15:45:15.307Z,128.13
2022-08-05T15:47:43.569Z,126.05
2022-08-05T15:50:15.237Z,140.38
2022-08-05T15:52:53.014Z,132.05
2022-08-05T15:55:24.874Z,118.07
2022-08-05T15:58:09.916Z,152.85
2022-08-05T16:00:57.135Z,136.75
2022-08-05T16:03:30.705Z,118.60
2022-08-05T16:06:01.088Z,112.75
2022-08-05T16:08:30.658Z,130.25
2022-08-05T16:10:58.668Z,133.18
2022-08-05T16:13:31.891Z,173.38
2022-08-05T16:16:03.373Z,144.85
2022-08-05T16:18:32.927Z,145.70
2022-08-05T16:21:04.310Z,150.02
2022-08-05T16:23:53.204Z,144.38
2022-08-05T16:26:18.697Z,166.60
2022-08-05T16:28:53.256Z,132.10
2022-08-05T16:31:21.572Z,142.00
2022-08-05T16:33:49.006Z,155.50
2022-08-05T16:36:20.278Z,157.60
2022-08-05T16:38:54.778Z,161.85
2022-08-05T16:42:12.601Z,158.68
2022-08-05T16:44:14.761Z,106.93
2022-08-05T16:49:23.911Z,116.70
2022-08-05T16:51:51.138Z,105.18
2022-08-05T16:54:28.623Z,108.03
2022-08-05T16:56:58.928Z,106.70
2022-08-05T16:59:27.757Z,121.53
2022-08-05T17:01:56.101Z,116.47
2022-08-05T17:04:28.153Z,118.28
2022-08-05T17:07:00.145Z,122.82
2022-08-05T17:09:29.884Z,119.05
2022-08-05T17:11:59.406Z,110.47
2022-08-05T17:14:37.543Z,98.00
2022-08-05T17:17:14.254Z,104.85
2022-08-05T17:19:46.391Z,74.93
2022-08-05T17:22:25.034Z,91.80
2022-08-05T17:24:58.161Z,89.75
2022-08-05T17:27:34.365Z,114.45
2022-08-05T17:30:02.811Z,118.20
2022-08-05T17:32:32.173Z,108.20
2022-08-05T17:35:02.060Z,99.22
2022-08-05T17:37:41.051Z,115.95
2022-08-05T17:40:12.390Z,115.38
2022-08-05T17:42:46.402Z,97.13
2022-08-05T17:45:21.858Z,109.90
2022-08-05T17:47:54.461Z,130.45
2022-08-05T17:50:29.581Z,119.55
2022-08-05T17:52:59.308Z,135.10
2022-08-05T17:55:27.422Z,96.38
2022-08-05T17:58:06.995Z,130.90
2022-08-05T18:00:36.496Z,118.50
2022-08-05T18:03:07.924Z,121.35
2022-08-05T18:05:35.679Z,122.15
2022-08-05T18:08:08.075Z,128.10
2022-08-05T18:10:36.701Z,142.82
2022-08-05T18:13:07.681Z,140.85
2022-08-05T18:15:39.849Z,142.20
2022-08-05T18:18:11.236Z,117.65
2022-08-05T18:20:38.700Z,127.53
2022-08-05T18:23:09.197Z,119.03
2022-08-05T18:25:39.075Z,112.30
2022-08-05T18:28:06.918Z,126.78
2022-08-05T18:30:38.897Z,107.43
2022-08-05T18:33:06.188Z,125.32
2022-08-05T18:35:59.993Z,101.50
2022-08-05T18:38:26.217Z,106.85
2022-08-05T18:41:53.943Z,107.32
2022-08-05T18:43:42.997Z,116.43
2022-08-05T18:46:15.932Z,122.93
2022-08-05T18:48:53.850Z,112.20
2022-08-05T18:52:06.033Z,118.72
2022-08-05T18:54:28.377Z,98.63
2022-08-05T18:57:01.725Z,123.35
2022-08-05T18:59:43.862Z,122.45
2022-08-05T19:02:28.573Z,105.88
2022-08-05T19:05:03.189Z,118.03
2022-08-05T19:07:49.851Z,120.93
2022-08-05T19:10:26.430Z,127.60
2022-08-05T19:12:54.891Z,130.77
2022-08-05T19:15:57.485Z,104.32
2022-08-05T19:18:13.593Z,122.80
2022-08-05T19:20:52.059Z,142.70
2022-08-05T19:23:22.383Z,139.88
2022-08-05T19:26:09.288Z,144.32
2022-08-05T19:28:42.077Z,136.65
2022-08-05T19:31:13.368Z,139.73
2022-08-05T19:33:48.675Z,130.55
2022-08-05T19:36:27.181Z,143.02
2022-08-05T19:39:00.537Z,164.30
2022-08-05T19:41:58.136Z,175.15
2022-08-05T19:44:15.474Z,153.18
2022-08-05T19:46:43.812Z,154.25
2022-08-05T19:49:12.455Z,187.35
2022-08-05T19:52:13.336Z,169.88
2022-08-05T19:54:34.163Z,183.65
2022-08-05T19:57:08.425Z,156.50
2022-08-05T19:59:59.488Z,193.75
2022-08-05T20:02:27.694Z,154.82
2022-08-05T20:04:59.026Z,178.68
2022-08-05T20:07:47.183Z,201.25
2022-08-05T20:10:17.161Z,206.60
2022-08-05T20:12:48.311Z,187.30
2022-08-05T20:15:48.543Z,183.35
2022-08-05T20:18:10.430Z,200.70
2022-08-05T20:20:56.037Z,211.15
2022-08-05T20:23:23.810Z,195.25
2022-08-05T20:26:08.107Z,185.00
2022-08-05T20:28:43.354Z,186.48
2022-08-05T20:31:10.172Z,194.73
2022-08-05T20:33:37.357Z,174.15
2022-08-05T20:36:04.499Z,162.27
2022-08-05T20:38:35.410Z,198.45
2022-08-05T20:41:04.529Z,188.68
2022-08-05T20:43:58.648Z,196.90
2022-08-05T20:46:25.205Z,193.02
2022-08-05T20:48:52.397Z,157.73
2022-08-05T20:51:21.527Z,179.75
2022-08-05T20:53:56.369Z,186.38
2022-08-05T20:56:29.755Z,155.35
2022-08-05T21:01:39.032Z,157.10
2022-08-05T21:04:10.801Z,178.85
2022-08-05T21:06:45.840Z,181.23
2022-08-05T21:09:14.941Z,159.98
2022-08-05T21:12:07.389Z,182.10
2022-08-05T21:14:35.047Z,177.77
2022-08-05T21:17:05.428Z,182.90
2022-08-05T21:19:46.648Z,202.43
2022-08-05T21:22:18.282Z,176.98
2022-08-05T21:24:48.856Z,171.15
2022-08-05T21:27:18.314Z,187.87
2022-08-05T21:29:48.326Z,164.55
2022-08-05T21:32:20.045Z,172.20
2022-08-05T21:34:55.899Z,181.00
2022-08-05T21:37:35.047Z,162.38
2022-08-05T21:40:13.129Z,146.63
2022-08-05T21:42:44.783Z,197.85
2022-08-05T21:45:17.602Z,174.52
2022-08-05T21:47:57.134Z,187.32
2022-08-05T21:50:26.449Z,180.70
2022-08-05T21:52:58.847Z,171.93
2022-08-05T21:56:04.208Z,179.70
2022-08-05T21:58:19.522Z,185.55
2022-08-05T22:00:51.470Z,182.57
2022-08-05T22:03:48.924Z,179.70
2022-08-05T22:06:06.331Z,163.70
2022-08-05T22:08:35.161Z,158.63
2022-08-05T22:11:01.981Z,149.02
2022-08-05T22:14:32.447Z,145.68
2022-08-05T22:16:41.491Z,123.03
2022-08-05T22:19:57.350Z,153.70
2022-08-05T22:21:54.654Z,123.25
2022-08-05T22:24:52.245Z,116.63
2022-08-05T22:28:09.952Z,141.63
2022-08-05T22:30:35.175Z,112.50
2022-08-05T22:33:03.979Z,149.00
2022-08-05T22:35:48.617Z,149.93
2022-08-05T22:38:16.001Z,132.82
2022-08-05T22:40:49.489Z,130.65
2022-08-05T22:43:36.920Z,109.07
2022-08-05T22:46:13.255Z,122.38
2022-08-05T22:48:41.633Z,138.32
2022-08-05T22:51:08.826Z,111.05
2022-08-05T22:53:50.085Z,129.88
2022-08-05T22:56:17.503Z,85.93
2022-08-05T22:59:00.086Z,119.57
2022-08-05T23:04:18.248Z,124.03
2022-08-05T23:06:45.405Z,120.15
2022-08-05T23:09:24.614Z,125.47
2022-08-05T23:11:54.993Z,115.43
2022-08-05T23:14:22.573Z,117.55
2022-08-05T23:17:18.651Z,118.07
2022-08-05T23:19:56.486Z,128.13
2022-08-05T23:22:27.560Z,126.68
2022-08-05T23:24:55.318Z,121.90
2022-08-05T23:27:22.679Z,122.25
2022-08-05T23:29:51.169Z,111.78
2022-08-05T23:32:22.731Z,114.95
2022-08-05T23:34:50.710Z,109.63
2022-08-05T23:37:18.183Z,101.60
2022-08-05T23:39:54.185Z,112.43
2022-08-05T23:42:23.426Z,127.53
2022-08-05T23:44:54.509Z,121.25
2022-08-05T23:47:21.594Z,123.03
2022-08-05T23:49:52.128Z,126.00
2022-08-05T23:52:35.842Z,129.05
2022-08-05T23:55:09.089Z,112.95
2022-08-05T23:57:36.705Z,147.30
